Time;durP1;ratioP1;P1;durP2;ratioP2;P2;SDS_P1;SDS_P2;PMS_P1;PMS_P2;Temp;Humidity;BMP_temperature;BMP_pressure;BME280_temperature;BME280_humidity;BME280_pressure;Samples;Min_cycle;Max_cycle;Signal;HPM_P1;HPM_P2
2021/12/15 00:01:32;;;;;;;96.10;58.20;;;8.80;99.90;;;;;;5092890;28;20443;-85
2021/12/15 00:04:00;;;;;;;94.45;56.45;;;8.80;99.90;;;;;;5090744;28;20874;-85
2021/12/15 00:06:26;;;;;;;90.60;56.83;;;8.80;99.90;;;;;;5075355;28;20392;-83
2021/12/15 00:08:56;;;;;;;89.03;54.65;;;8.80;99.90;;;;;;5092905;28;20383;-84
2021/12/15 00:11:32;;;;;;;92.25;55.63;;;8.80;99.90;;;;;;5057257;28;20377;-83
2021/12/15 00:14:01;;;;;;;92.38;56.63;;;8.80;99.90;;;;;;5086975;28;20799;-84
2021/12/15 00:16:28;;;;;;;93.82;56.50;;;8.80;99.90;;;;;;5089278;28;20390;-84
2021/12/15 00:18:54;;;;;;;99.07;57.92;;;8.80;99.90;;;;;;5091889;28;20380;-84
2021/12/15 00:21:20;;;;;;;94.85;57.47;;;8.80;99.90;;;;;;5095005;28;20437;-84
2021/12/15 00:23:48;;;;;;;99.60;58.65;;;8.80;99.90;;;;;;5094426;28;20397;-86
2021/12/15 00:26:14;;;;;;;95.28;56.75;;;8.70;99.90;;;;;;5083397;28;20864;-83
2021/12/15 00:28:42;;;;;;;96.63;57.40;;;8.70;99.90;;;;;;5072553;28;20431;-83
2021/12/15 00:31:08;;;;;;;90.68;56.08;;;8.80;99.90;;;;;;5090521;28;20373;-84
2021/12/15 00:33:36;;;;;;;96.78;57.05;;;8.80;99.90;;;;;;5056020;28;20750;-85
2021/12/15 00:36:04;;;;;;;95.03;55.92;;;8.70;99.90;;;;;;5082068;28;20428;-84
2021/12/15 00:38:30;;;;;;;101.50;57.07;;;8.80;99.90;;;;;;5071651;28;20725;-84
2021/12/15 00:40:56;;;;;;;91.20;55.10;;;8.70;99.90;;;;;;5064302;28;20880;-84
2021/12/15 00:43:22;;;;;;;97.03;57.85;;;8.80;99.90;;;;;;5072058;28;20514;-86
2021/12/15 00:45:48;;;;;;;93.83;54.83;;;8.80;99.90;;;;;;5063743;28;20528;-83
2021/12/15 00:48:15;;;;;;;99.65;57.58;;;8.70;99.90;;;;;;5071430;28;20419;-84
2021/12/15 00:50:41;;;;;;;96.68;56.38;;;8.80;99.90;;;;;;5072333;28;20378;-84
2021/12/15 00:53:07;;;;;;;102.72;57.83;;;8.70;99.90;;;;;;5071728;28;20386;-85
2021/12/15 00:55:34;;;;;;;96.53;55.80;;;8.70;99.90;;;;;;5071669;28;21592;-84
2021/12/15 00:58:00;;;;;;;97.18;56.42;;;8.80;99.90;;;;;;5053435;28;20392;-84
2021/12/15 01:00:37;;;;;;;102.40;57.42;;;8.70;99.90;;;;;;5071365;28;20894;-85
2021/12/15 01:03:05;;;;;;;93.75;54.75;;;8.70;99.90;;;;;;5049124;28;20475;-85
2021/12/15 01:05:36;;;;;;;101.97;58.38;;;8.60;99.90;;;;;;5066955;28;20405;-85
2021/12/15 01:08:07;;;;;;;98.68;56.05;;;8.60;99.90;;;;;;5055324;28;20753;-84
2021/12/15 01:21:45;;;;;;;96.22;55.20;;;8.70;99.90;;;;;;5071203;28;20381;-85
2021/12/15 01:24:11;;;;;;;94.13;54.38;;;8.60;99.90;;;;;;5054927;28;20386;-84
2021/12/15 01:26:36;;;;;;;92.95;54.13;;;8.70;99.90;;;;;;5061740;28;20393;-84
2021/12/15 01:29:03;;;;;;;93.57;53.65;;;8.70;99.90;;;;;;5071398;28;20864;-84
2021/12/15 01:31:28;;;;;;;94.22;55.15;;;8.70;99.90;;;;;;5088510;28;20949;-86
2021/12/15 01:33:54;;;;;;;96.03;54.55;;;8.70;99.90;;;;;;5070548;28;20417;-84
2021/12/15 01:36:21;;;;;;;94.57;53.50;;;8.70;99.90;;;;;;5071950;28;20368;-85
2021/12/15 01:38:47;;;;;;;97.40;55.22;;;8.70;99.90;;;;;;5078778;28;20385;-84
2021/12/15 01:41:23;;;;;;;94.68;55.33;;;8.60;99.90;;;;;;5052846;28;20386;-84
2021/12/15 01:49:48;;;;;;;89.40;51.70;;;8.60;99.90;;;;;;5053406;28;20408;-83
2021/12/15 01:52:27;;;;;;;84.50;50.38;;;8.60;99.90;;;;;;5070305;28;20386;-84
2021/12/15 01:55:00;;;;;;;82.05;49.80;;;8.60;99.90;;;;;;5070275;28;20390;-83
2021/12/15 01:57:30;;;;;;;89.97;50.97;;;8.70;99.90;;;;;;5063866;28;20461;-84
2021/12/15 01:59:56;;;;;;;77.60;47.15;;;8.60;99.90;;;;;;5084652;28;20402;-84
2021/12/15 02:02:23;;;;;;;84.63;49.58;;;8.70;99.90;;;;;;5052497;28;20407;-84
2021/12/15 02:04:50;;;;;;;85.85;50.85;;;8.70;99.90;;;;;;5080779;28;20548;-84
2021/12/15 02:07:18;;;;;;;83.00;48.50;;;8.60;99.90;;;;;;5069858;28;20382;-84
2021/12/15 02:12:23;;;;;;;86.10;49.30;;;8.70;99.90;;;;;;5090047;28;20400;-85
2021/12/15 02:14:50;;;;;;;88.90;50.20;;;8.60;99.90;;;;;;5078804;28;20394;-84
2021/12/15 02:17:17;;;;;;;81.75;48.10;;;8.60;99.90;;;;;;5051804;28;20390;-84
2021/12/15 02:19:43;;;;;;;80.20;47.63;;;8.70;99.90;;;;;;5062937;28;20403;-85
2021/12/15 02:22:10;;;;;;;81.03;48.53;;;8.70;99.90;;;;;;5071785;28;20389;-84
2021/12/15 02:24:37;;;;;;;80.87;46.73;;;8.70;99.90;;;;;;5061216;28;20563;-84
2021/12/15 02:27:04;;;;;;;77.53;46.10;;;8.70;99.90;;;;;;5051717;28;20494;-85
2021/12/15 02:29:35;;;;;;;82.50;46.65;;;8.70;99.90;;;;;;5064693;28;20441;-85
2021/12/15 02:32:35;;;;;;;78.57;46.80;;;8.60;99.90;;;;;;5071294;28;20495;-83
2021/12/15 02:37:15;;;;;;;81.70;48.45;;;8.70;99.90;;;;;;5068990;28;20408;-85
2021/12/15 02:37:55;;;;;;;81.47;48.07;;;8.70;99.90;;;;;;5082106;28;20407;-85
2021/12/15 02:40:21;;;;;;;84.03;48.27;;;8.60;99.90;;;;;;5051724;28;20390;-84
2021/12/15 02:42:49;;;;;;;82.73;48.37;;;8.60;99.90;;;;;;5087349;28;20390;-84
2021/12/15 02:45:19;;;;;;;83.30;47.20;;;8.60;99.90;;;;;;5071188;28;20889;-85
2021/12/15 02:47:47;;;;;;;82.30;48.77;;;8.60;99.90;;;;;;5068495;28;20469;-84
2021/12/15 02:50:20;;;;;;;85.30;49.72;;;8.60;99.90;;;;;;5075942;28;20405;-86
2021/12/15 02:52:46;;;;;;;85.87;48.50;;;8.60;99.90;;;;;;5071138;28;20436;-85
2021/12/15 02:55:14;;;;;;;85.15;48.72;;;8.60;99.90;;;;;;5071338;28;20387;-84
2021/12/15 02:57:40;;;;;;;79.97;46.92;;;8.70;99.90;;;;;;5087154;28;20873;-85
2021/12/15 03:00:18;;;;;;;80.32;45.92;;;8.70;99.90;;;;;;5086703;28;20557;-85
2021/12/15 03:05:25;;;;;;;78.40;46.78;;;8.70;99.90;;;;;;5087548;28;20400;-86
2021/12/15 03:08:13;;;;;;;84.90;48.65;;;8.70;99.90;;;;;;5070088;28;20388;-86
2021/12/15 03:16:12;;;;;;;78.40;46.78;;;8.70;99.90;;;;;;5079723;28;20441;-84
2021/12/15 03:18:38;;;;;;;77.97;47.13;;;8.80;99.90;;;;;;5078873;28;20859;-83
2021/12/15 03:21:21;;;;;;;79.60;47.00;;;8.80;99.90;;;;;;5069713;28;20406;-85
2021/12/15 03:24:02;;;;;;;72.28;44.55;;;8.70;99.90;;;;;;5077883;28;20475;-84
2021/12/15 03:26:41;;;;;;;77.75;46.17;;;8.80;99.90;;;;;;5070401;28;20481;-85
2021/12/15 03:35:00;;;;;;;79.40;46.53;;;8.70;99.90;;;;;;5072749;28;20442;-84
2021/12/15 03:37:28;;;;;;;83.63;47.50;;;8.60;99.90;;;;;;5104935;28;20401;-84
2021/12/15 03:39:59;;;;;;;80.23;46.63;;;8.60;99.90;;;;;;5104614;28;20382;-84
2021/12/15 03:42:31;;;;;;;81.93;47.95;;;8.60;99.90;;;;;;5050813;28;20884;-84
2021/12/15 03:44:58;;;;;;;80.07;46.35;;;8.60;99.90;;;;;;5053943;28;20420;-86
2021/12/15 03:47:29;;;;;;;81.97;48.75;;;8.70;99.90;;;;;;5070487;28;20382;-85
2021/12/15 03:49:59;;;;;;;83.53;46.92;;;8.60;99.90;;;;;;5083667;28;20475;-85
2021/12/15 03:52:26;;;;;;;83.23;47.40;;;8.60;99.90;;;;;;5068047;28;20409;-84
2021/12/15 03:54:52;;;;;;;84.05;47.30;;;8.60;99.90;;;;;;5066723;28;20479;-85
2021/12/15 03:57:20;;;;;;;83.13;47.97;;;8.60;99.90;;;;;;5069717;28;20816;-84
2021/12/15 03:59:47;;;;;;;84.45;47.88;;;8.60;99.90;;;;;;5070091;28;21034;-85
2021/12/15 04:02:17;;;;;;;84.82;47.50;;;8.60;99.90;;;;;;5088680;28;20384;-83
2021/12/15 04:04:43;;;;;;;81.22;46.90;;;8.60;99.90;;;;;;5068194;28;20422;-84
2021/12/15 04:07:13;;;;;;;82.78;47.35;;;8.60;99.90;;;;;;5088160;28;20403;-84
2021/12/15 04:09:39;;;;;;;79.10;47.08;;;8.60;99.90;;;;;;5051243;28;20386;-85
2021/12/15 04:12:06;;;;;;;78.10;46.42;;;8.60;99.90;;;;;;5069623;28;20446;-86
2021/12/15 04:14:42;;;;;;;78.18;47.05;;;8.60;99.90;;;;;;5066937;28;20403;-86
2021/12/15 04:17:26;;;;;;;75.25;44.67;;;8.60;99.90;;;;;;5068698;28;20420;-84
2021/12/15 04:19:54;;;;;;;73.77;45.20;;;8.60;99.90;;;;;;5051802;28;20412;-86
2021/12/15 04:22:19;;;;;;;76.43;45.60;;;8.60;99.90;;;;;;5049402;28;20394;-84
2021/12/15 04:24:45;;;;;;;74.13;44.37;;;8.60;99.90;;;;;;5067913;28;20821;-84
2021/12/15 04:27:11;;;;;;;72.32;43.67;;;8.60;99.90;;;;;;5050787;28;20398;-84
2021/12/15 04:29:39;;;;;;;70.57;43.10;;;8.60;99.90;;;;;;5089753;28;20396;-83
2021/12/15 04:32:17;;;;;;;70.50;43.17;;;8.70;99.90;;;;;;5069932;28;20376;-86
2021/12/15 04:34:43;;;;;;;71.22;43.63;;;8.60;99.90;;;;;;5086341;28;20389;-85
2021/12/15 04:37:08;;;;;;;71.40;43.33;;;8.70;99.90;;;;;;5065597;28;20444;-86
2021/12/15 04:39:34;;;;;;;67.35;42.58;;;8.70;99.90;;;;;;5068468;28;20420;-86
2021/12/15 04:42:00;;;;;;;65.97;43.60;;;8.70;99.90;;;;;;5076708;28;20410;-87
2021/12/15 04:44:30;;;;;;;66.72;42.17;;;8.70;99.90;;;;;;5073728;28;20804;-84
2021/12/15 04:47:02;;;;;;;68.30;43.75;;;8.70;99.90;;;;;;5069725;28;20376;-85
2021/12/15 04:49:35;;;;;;;65.55;42.38;;;8.70;99.90;;;;;;5052727;28;20429;-83
2021/12/15 04:52:02;;;;;;;68.72;42.90;;;8.70;99.90;;;;;;5072068;28;20844;-86
2021/12/15 04:54:30;;;;;;;70.22;44.45;;;8.70;99.90;;;;;;5071482;28;20470;-83
2021/12/15 04:56:57;;;;;;;70.07;43.83;;;8.70;99.90;;;;;;5053729;28;20421;-83
2021/12/15 04:59:23;;;;;;;63.58;41.00;;;8.80;99.90;;;;;;5060615;28;20381;-85
2021/12/15 05:01:49;;;;;;;61.88;42.00;;;8.80;99.90;;;;;;5073356;28;20395;-84
2021/12/15 05:04:15;;;;;;;68.35;43.50;;;8.80;99.90;;;;;;5056566;28;20896;-85
2021/12/15 05:06:42;;;;;;;68.35;43.40;;;8.90;99.90;;;;;;5071508;28;20485;-85
2021/12/15 05:09:08;;;;;;;69.22;43.75;;;8.80;99.90;;;;;;5053263;28;20975;-84
2021/12/15 05:11:35;;;;;;;65.15;42.50;;;8.80;99.90;;;;;;5064551;28;20428;-84
2021/12/15 05:14:01;;;;;;;72.97;44.22;;;8.80;99.90;;;;;;5064225;28;20417;-85
2021/12/15 05:16:27;;;;;;;72.32;44.30;;;8.80;99.90;;;;;;5060358;28;20386;-84
2021/12/15 05:18:53;;;;;;;71.95;44.72;;;8.80;99.90;;;;;;5064442;28;20444;-85
2021/12/15 05:21:19;;;;;;;69.75;43.55;;;8.70;99.90;;;;;;5090618;28;20444;-83
2021/12/15 05:23:49;;;;;;;70.90;44.67;;;8.70;99.90;;;;;;5073264;28;20855;-84
2021/12/15 05:26:15;;;;;;;68.25;43.03;;;8.70;99.90;;;;;;5090413;28;20447;-83
2021/12/15 05:28:41;;;;;;;72.63;44.17;;;8.90;99.90;;;;;;5062185;28;20397;-84
2021/12/15 05:31:06;;;;;;;66.73;42.50;;;8.80;99.90;;;;;;5071012;28;20385;-85
2021/12/15 05:33:32;;;;;;;73.65;45.00;;;8.80;99.90;;;;;;5064537;28;20388;-84
2021/12/15 05:35:58;;;;;;;74.93;44.88;;;8.80;99.90;;;;;;5070704;28;20487;-84
2021/12/15 05:38:25;;;;;;;69.93;44.28;;;8.70;99.90;;;;;;5065474;28;20374;-83
2021/12/15 05:40:51;;;;;;;75.05;44.90;;;8.80;99.90;;;;;;5052539;28;20887;-85
2021/12/15 05:43:17;;;;;;;72.05;43.55;;;8.80;99.90;;;;;;5056941;28;20394;-85
2021/12/15 05:45:43;;;;;;;72.82;44.85;;;8.80;99.90;;;;;;5088980;28;20890;-85
2021/12/15 05:48:15;;;;;;;67.63;42.58;;;8.80;99.90;;;;;;5077181;28;20469;-87
2021/12/15 05:50:43;;;;;;;69.10;43.35;;;8.80;99.90;;;;;;5054668;28;20474;-84
2021/12/15 05:53:08;;;;;;;65.80;41.20;;;8.80;99.90;;;;;;5057273;28;20390;-85
2021/12/15 05:55:36;;;;;;;64.60;41.17;;;8.80;99.90;;;;;;5072998;28;20388;-84
2021/12/15 05:58:04;;;;;;;65.75;41.63;;;8.80;99.90;;;;;;5091222;28;20846;-83
2021/12/15 06:00:33;;;;;;;62.25;39.72;;;8.80;99.90;;;;;;5058531;28;20914;-84
2021/12/15 06:03:00;;;;;;;65.70;40.80;;;8.90;99.90;;;;;;5069618;28;20382;-85
2021/12/15 06:05:26;;;;;;;60.10;39.63;;;8.80;99.90;;;;;;5070026;28;20427;-85
2021/12/15 06:07:52;;;;;;;62.37;40.10;;;8.90;99.90;;;;;;5075393;28;20390;-86
2021/12/15 06:10:23;;;;;;;63.17;40.35;;;8.80;99.90;;;;;;5109839;28;20454;-85
2021/12/15 06:12:50;;;;;;;61.85;40.03;;;8.80;99.90;;;;;;5092676;28;20474;-85
2021/12/15 06:15:21;;;;;;;57.05;38.53;;;8.80;99.90;;;;;;5110790;28;20450;-84
2021/12/15 06:17:56;;;;;;;56.07;37.30;;;8.80;99.90;;;;;;5110615;28;20477;-85
2021/12/15 06:20:22;;;;;;;59.13;38.88;;;8.90;99.90;;;;;;5092237;28;20911;-82
2021/12/15 06:22:48;;;;;;;56.72;37.92;;;8.90;99.90;;;;;;5092179;28;20390;-84
2021/12/15 06:25:14;;;;;;;55.78;37.35;;;8.80;99.90;;;;;;5079519;28;20497;-83
2021/12/15 06:27:41;;;;;;;54.00;35.33;;;8.90;99.90;;;;;;5059516;28;20422;-82
2021/12/15 06:30:09;;;;;;;55.47;37.00;;;8.80;99.90;;;;;;5072518;28;20383;-86
2021/12/15 06:32:35;;;;;;;54.60;37.08;;;8.90;99.90;;;;;;5089250;28;20377;-84
2021/12/15 06:35:01;;;;;;;52.70;36.33;;;8.90;99.90;;;;;;5072019;28;20377;-84
2021/12/15 06:37:28;;;;;;;51.90;35.90;;;9.00;99.90;;;;;;5089671;28;20791;-84
2021/12/15 06:39:53;;;;;;;56.70;38.10;;;9.00;99.90;;;;;;5071838;28;20380;-87
2021/12/15 06:42:19;;;;;;;55.60;36.65;;;9.00;99.90;;;;;;5089691;28;20384;-84
2021/12/15 06:44:46;;;;;;;52.85;36.25;;;9.00;99.90;;;;;;5071741;28;20400;-85
2021/12/15 06:58:24;;;;;;;49.40;35.13;;;8.80;99.90;;;;;;5089839;28;20467;-83
2021/12/15 07:00:54;;;;;;;49.75;34.30;;;8.90;99.90;;;;;;5071253;28;20962;-84
2021/12/15 07:03:20;;;;;;;49.80;34.75;;;8.90;99.90;;;;;;5071495;28;20387;-83
2021/12/15 07:05:46;;;;;;;48.70;35.03;;;9.00;99.90;;;;;;5071150;28;20487;-83
2021/12/15 07:08:13;;;;;;;44.75;33.63;;;9.00;99.90;;;;;;5089659;28;20380;-83
2021/12/15 07:10:43;;;;;;;47.47;34.97;;;9.10;99.90;;;;;;5089782;28;20372;-83
2021/12/15 07:13:10;;;;;;;48.80;34.72;;;9.00;99.90;;;;;;5089415;28;20376;-85
2021/12/15 07:15:37;;;;;;;48.58;34.42;;;9.00;99.90;;;;;;5087803;28;20392;-84
2021/12/15 07:18:08;;;;;;;47.15;33.88;;;9.10;99.90;;;;;;5064783;28;20439;-84
2021/12/15 07:20:44;;;;;;;47.40;34.17;;;9.00;99.90;;;;;;5083475;28;20851;-83
2021/12/15 07:23:13;;;;;;;44.13;32.40;;;9.00;99.90;;;;;;5066238;28;20395;-87
2021/12/15 07:25:43;;;;;;;43.92;32.47;;;9.00;99.90;;;;;;5067981;28;20942;-86
2021/12/15 07:28:09;;;;;;;45.42;32.65;;;9.00;99.90;;;;;;5060128;28;20414;-82
2021/12/15 07:30:38;;;;;;;46.70;33.25;;;9.00;99.90;;;;;;5091250;28;20375;-85
2021/12/15 07:33:06;;;;;;;42.10;32.47;;;9.00;99.90;;;;;;5059322;28;20386;-85
2021/12/15 07:35:33;;;;;;;43.35;32.20;;;9.10;99.90;;;;;;5050975;28;20386;-86
2021/12/15 07:37:59;;;;;;;45.72;33.80;;;9.10;99.90;;;;;;5051019;28;20394;-83
2021/12/15 07:40:26;;;;;;;40.63;31.42;;;9.00;99.90;;;;;;5068956;28;20457;-84
2021/12/15 07:43:09;;;;;;;40.60;30.52;;;9.10;99.90;;;;;;5067750;28;20376;-84
2021/12/15 07:45:37;;;;;;;43.55;32.13;;;9.10;99.90;;;;;;5068145;28;22248;-86
2021/12/15 07:48:05;;;;;;;42.08;31.60;;;9.00;99.90;;;;;;5069778;28;20796;-84
2021/12/15 07:50:33;;;;;;;40.47;31.42;;;9.00;99.90;;;;;;5068580;28;20380;-83
2021/12/15 07:52:59;;;;;;;41.65;31.70;;;9.10;99.90;;;;;;5051596;28;20401;-86
2021/12/15 07:55:26;;;;;;;40.60;31.02;;;9.10;99.90;;;;;;5069162;28;20463;-84
2021/12/15 07:57:52;;;;;;;41.63;32.17;;;9.10;99.90;;;;;;5089083;28;20380;-82
2021/12/15 08:00:20;;;;;;;40.05;30.65;;;9.10;99.90;;;;;;5088824;28;20978;-86
2021/12/15 08:02:46;;;;;;;37.13;29.40;;;9.20;99.90;;;;;;5062568;28;20390;-87
2021/12/15 08:05:13;;;;;;;39.72;31.65;;;9.30;99.90;;;;;;5075561;28;20400;-85
2021/12/15 08:07:39;;;;;;;37.38;29.55;;;9.30;99.90;;;;;;5089167;28;20889;-84
2021/12/15 08:10:09;;;;;;;40.72;30.80;;;9.40;99.90;;;;;;5087533;28;20376;-83
2021/12/15 08:12:35;;;;;;;37.47;30.38;;;9.40;99.90;;;;;;5089351;28;20445;-84
2021/12/15 08:15:01;;;;;;;40.58;30.88;;;9.40;99.90;;;;;;5089354;28;20459;-83
2021/12/15 08:17:26;;;;;;;43.00;31.53;;;9.30;99.90;;;;;;5070596;28;21183;-84
2021/12/15 08:19:52;;;;;;;42.60;32.47;;;9.30;99.90;;;;;;5061286;28;20391;-83
2021/12/15 08:22:18;;;;;;;41.90;31.83;;;9.30;99.90;;;;;;5076403;28;20881;-84
2021/12/15 08:24:44;;;;;;;44.92;33.05;;;9.40;99.90;;;;;;5086913;28;20841;-83
2021/12/15 08:27:09;;;;;;;40.43;30.63;;;9.30;99.90;;;;;;5091372;28;20384;-84
2021/12/15 08:29:36;;;;;;;44.03;32.77;;;9.40;99.90;;;;;;5091218;28;20453;-84
2021/12/15 08:32:02;;;;;;;41.63;31.40;;;9.40;99.90;;;;;;5091079;28;20388;-85
2021/12/15 08:34:28;;;;;;;43.35;32.55;;;9.40;99.90;;;;;;5082477;28;20505;-84
2021/12/15 08:36:54;;;;;;;44.72;33.70;;;9.40;99.90;;;;;;5052474;28;20473;-83
2021/12/15 08:39:22;;;;;;;42.25;31.25;;;9.40;99.90;;;;;;5053190;28;20900;-84
2021/12/15 08:41:48;;;;;;;42.60;32.08;;;9.40;99.90;;;;;;5072355;28;20380;-84
2021/12/15 08:44:14;;;;;;;39.58;31.95;;;9.50;99.90;;;;;;5059734;28;20836;-84
2021/12/15 08:46:47;;;;;;;41.83;32.83;;;9.50;99.90;;;;;;5073451;28;20504;-86
2021/12/15 08:49:16;;;;;;;40.35;31.63;;;9.60;99.90;;;;;;5092299;28;20404;-84
2021/12/15 08:51:43;;;;;;;42.92;32.10;;;9.60;99.90;;;;;;5072761;28;20410;-83
2021/12/15 08:54:14;;;;;;;38.47;30.45;;;9.50;99.90;;;;;;5064412;28;20455;-84
2021/12/15 08:56:42;;;;;;;38.35;30.50;;;9.60;99.90;;;;;;5087265;28;20418;-84
2021/12/15 08:59:09;;;;;;;35.40;28.63;;;9.50;99.90;;;;;;5089901;28;20401;-84
2021/12/15 09:01:35;;;;;;;35.85;28.65;;;9.60;99.90;;;;;;5091427;28;21137;-84
2021/12/15 09:04:01;;;;;;;36.72;28.48;;;9.60;99.90;;;;;;5072785;28;20391;-87
2021/12/15 09:06:28;;;;;;;35.77;28.87;;;9.60;99.90;;;;;;5073156;28;20526;-85
2021/12/15 09:08:54;;;;;;;36.28;28.77;;;9.60;99.90;;;;;;5073327;28;20422;-86
2021/12/15 09:11:25;;;;;;;33.65;27.92;;;9.70;99.90;;;;;;5070823;28;20461;-85
2021/12/15 09:13:53;;;;;;;37.67;28.55;;;9.70;99.90;;;;;;5073129;28;20417;-84
2021/12/15 09:16:22;;;;;;;34.42;28.50;;;9.60;99.90;;;;;;5072835;28;20388;-85
2021/12/15 09:18:54;;;;;;;37.65;29.42;;;9.70;99.90;;;;;;5071832;28;20425;-84
2021/12/15 09:21:23;;;;;;;36.03;29.67;;;9.70;99.90;;;;;;5058772;28;20389;-84
2021/12/15 09:23:49;;;;;;;36.53;28.67;;;9.80;99.90;;;;;;5074304;28;20396;-85
2021/12/15 09:26:16;;;;;;;36.83;29.52;;;9.80;99.90;;;;;;5064805;28;20410;-83
2021/12/15 09:28:42;;;;;;;38.65;30.27;;;9.80;99.90;;;;;;5069096;28;20370;-86
2021/12/15 09:31:10;;;;;;;37.00;28.75;;;9.70;99.90;;;;;;5084253;28;20717;-87
2021/12/15 09:33:38;;;;;;;34.92;29.35;;;9.70;99.90;;;;;;5052143;28;20398;-89
2021/12/15 09:36:05;;;;;;;33.72;27.45;;;9.90;99.90;;;;;;5069798;28;20495;-89
2021/12/15 09:38:35;;;;;;;36.30;28.67;;;9.90;99.90;;;;;;5052576;28;20852;-88
2021/12/15 09:41:03;;;;;;;38.65;29.38;;;9.80;99.90;;;;;;5070225;28;20405;-89
2021/12/15 09:43:31;;;;;;;35.58;28.55;;;9.80;99.90;;;;;;5052224;28;20932;-89
2021/12/15 10:18:42;;;;;;;30.30;24.73;;;9.80;99.90;;;;;;5091460;28;20488;-87
2021/12/15 10:21:24;;;;;;;29.98;25.67;;;9.80;99.90;;;;;;5071032;28;20414;-88
2021/12/15 10:23:51;;;;;;;31.95;25.80;;;9.80;99.90;;;;;;5071746;28;20379;-86
2021/12/15 10:26:18;;;;;;;29.35;23.98;;;9.80;99.90;;;;;;5072218;28;20544;-88
2021/12/15 10:28:48;;;;;;;30.65;24.98;;;9.80;99.90;;;;;;5071713;28;20441;-89
2021/12/15 10:31:16;;;;;;;28.92;24.15;;;9.80;99.90;;;;;;5071919;28;20457;-88
2021/12/15 10:33:53;;;;;;;27.63;23.53;;;9.90;99.90;;;;;;5072086;28;20446;-88
2021/12/15 10:36:34;;;;;;;30.27;24.50;;;10.00;99.90;;;;;;5072099;28;20380;-88
2021/12/15 10:39:04;;;;;;;29.30;24.67;;;9.90;99.90;;;;;;5070880;28;20538;-89
2021/12/15 10:41:34;;;;;;;26.95;23.00;;;9.90;99.90;;;;;;5071502;28;20373;-89
2021/12/15 10:44:04;;;;;;;27.50;22.80;;;10.00;99.90;;;;;;5071037;28;20372;-87
2021/12/15 10:46:35;;;;;;;25.40;21.75;;;10.10;99.90;;;;;;5072024;28;20493;-88
2021/12/15 10:49:08;;;;;;;24.27;21.08;;;10.10;99.90;;;;;;5070871;28;20478;-88
2021/12/15 10:51:44;;;;;;;26.65;22.40;;;10.10;99.90;;;;;;5071242;28;20426;-88
2021/12/15 10:54:18;;;;;;;24.10;21.50;;;10.10;99.90;;;;;;5071411;28;20384;-88
2021/12/15 10:56:53;;;;;;;25.90;22.45;;;10.10;99.90;;;;;;5071725;28;20381;-88
2021/12/15 10:59:20;;;;;;;24.15;21.40;;;10.10;99.90;;;;;;5070393;28;20400;-88
2021/12/15 11:02:07;;;;;;;23.95;21.02;;;10.20;99.90;;;;;;5071094;28;20454;-88
2021/12/15 11:04:50;;;;;;;23.77;21.17;;;10.30;99.90;;;;;;5070962;28;20377;-89
2021/12/15 11:07:31;;;;;;;23.85;20.90;;;10.50;99.90;;;;;;5071332;28;20443;-87
2021/12/15 11:10:04;;;;;;;23.85;21.25;;;10.60;99.90;;;;;;5071068;28;21157;-88
2021/12/15 11:12:40;;;;;;;23.95;20.58;;;10.60;99.90;;;;;;5069850;28;20380;-87
2021/12/15 11:15:22;;;;;;;24.30;21.55;;;10.50;99.90;;;;;;5087313;28;20390;-88
2021/12/15 11:18:01;;;;;;;23.42;20.70;;;10.60;99.90;;;;;;5069416;28;20800;-87
2021/12/15 11:20:35;;;;;;;23.05;20.45;;;10.60;99.90;;;;;;5069546;28;20384;-88
2021/12/15 11:23:04;;;;;;;23.70;20.50;;;10.50;99.90;;;;;;5068221;28;20404;-88
2021/12/15 11:25:31;;;;;;;23.52;20.90;;;10.50;99.90;;;;;;5069630;28;20429;-87
2021/12/15 11:28:05;;;;;;;22.95;20.45;;;10.60;99.90;;;;;;5070368;28;22512;-88
2021/12/15 11:30:53;;;;;;;22.50;20.15;;;10.70;99.90;;;;;;5070781;28;20455;-88
2021/12/15 11:33:26;;;;;;;22.75;19.45;;;10.80;99.90;;;;;;5056496;28;20737;-88
2021/12/15 11:35:56;;;;;;;22.98;18.98;;;10.90;99.90;;;;;;5070523;28;20574;-88
2021/12/15 11:38:27;;;;;;;23.20;19.48;;;11.00;99.90;;;;;;5070402;28;20392;-86
2021/12/15 11:40:55;;;;;;;20.88;18.48;;;11.00;99.90;;;;;;5070176;28;20456;-89
2021/12/15 11:43:45;;;;;;;20.58;18.25;;;11.00;99.90;;;;;;5071262;28;20404;-88
2021/12/15 11:46:27;;;;;;;19.60;17.40;;;10.90;99.90;;;;;;5070123;28;20894;-89
2021/12/15 11:49:12;;;;;;;20.27;17.65;;;11.10;99.90;;;;;;5070402;28;20419;-87
2021/12/15 11:52:05;;;;;;;18.85;16.73;;;11.10;99.90;;;;;;5070083;28;20488;-88
2021/12/15 11:54:33;;;;;;;18.35;16.38;;;11.00;99.90;;;;;;5070655;28;20442;-87
2021/12/15 11:57:05;;;;;;;18.33;16.43;;;11.10;99.90;;;;;;5070585;28;20376;-89
2021/12/15 11:59:44;;;;;;;19.17;17.10;;;11.00;99.90;;;;;;5069388;28;20399;-88
2021/12/15 12:02:30;;;;;;;19.48;17.23;;;11.00;99.90;;;;;;5070119;28;20380;-88
2021/12/15 12:05:02;;;;;;;19.75;17.65;;;10.90;99.90;;;;;;5070245;28;20450;-89
2021/12/15 12:07:31;;;;;;;18.95;16.95;;;10.80;99.90;;;;;;5070704;28;20383;-87
2021/12/15 12:10:00;;;;;;;19.75;17.38;;;10.80;99.90;;;;;;5070611;28;20377;-87
2021/12/15 12:12:32;;;;;;;18.70;16.70;;;10.80;99.90;;;;;;5069721;28;20464;-89
2021/12/15 12:14:58;;;;;;;20.87;17.33;;;10.80;99.90;;;;;;5071007;28;20854;-88
2021/12/15 12:17:29;;;;;;;19.93;17.77;;;10.80;99.90;;;;;;5070598;28;20381;-89
2021/12/15 12:20:10;;;;;;;19.73;16.77;;;10.70;99.90;;;;;;5070201;28;20391;-88
2021/12/15 12:22:40;;;;;;;18.90;16.70;;;10.70;99.90;;;;;;5070439;28;20388;-89
2021/12/15 12:25:14;;;;;;;19.17;17.02;;;10.70;99.90;;;;;;5069883;28;20416;-88
2021/12/15 12:27:41;;;;;;;19.08;16.50;;;10.60;99.90;;;;;;5070890;28;20866;-89
2021/12/15 12:30:16;;;;;;;19.10;16.27;;;10.70;99.90;;;;;;5087974;28;20380;-88
2021/12/15 12:32:42;;;;;;;17.83;15.93;;;10.70;99.90;;;;;;5070327;28;20375;-88
2021/12/15 12:35:10;;;;;;;19.75;16.80;;;10.80;99.90;;;;;;5068331;28;20404;-88
2021/12/15 12:37:37;;;;;;;20.33;16.75;;;10.80;99.90;;;;;;5063810;28;20842;-90
2021/12/15 12:40:19;;;;;;;21.60;17.42;;;10.70;99.90;;;;;;5068908;28;20376;-88
2021/12/15 12:42:45;;;;;;;21.33;16.95;;;10.80;99.90;;;;;;5069351;28;20463;-88
2021/12/15 12:45:38;;;;;;;18.33;16.13;;;10.80;99.90;;;;;;5087178;28;20442;-88
2021/12/15 12:59:32;;;;;;;19.63;17.00;;;10.90;99.90;;;;;;5088840;28;20380;-89
2021/12/15 13:01:59;;;;;;;21.63;17.98;;;10.90;99.90;;;;;;5069458;28;20811;-89
2021/12/15 13:04:44;;;;;;;21.58;17.83;;;10.80;99.90;;;;;;5069486;28;20391;-88
2021/12/15 13:07:10;;;;;;;19.25;17.02;;;10.90;99.90;;;;;;5068981;28;20408;-88
2021/12/15 13:09:49;;;;;;;19.73;17.33;;;10.80;99.90;;;;;;5069277;28;20392;-88
2021/12/15 13:12:25;;;;;;;20.92;18.15;;;10.80;99.90;;;;;;5071303;28;20454;-88
2021/12/15 13:14:54;;;;;;;19.50;16.85;;;10.80;99.90;;;;;;5073200;28;20464;-87
2021/12/15 13:17:25;;;;;;;19.50;16.90;;;10.90;99.90;;;;;;5073388;28;20408;-87
2021/12/15 13:19:53;;;;;;;20.13;17.08;;;10.90;99.90;;;;;;5072697;28;20491;-86
2021/12/15 13:22:47;;;;;;;21.08;17.88;;;11.00;99.90;;;;;;5072925;28;20483;-86
2021/12/15 13:31:09;;;;;;;22.58;18.88;;;10.90;99.90;;;;;;5091198;28;20815;-88
2021/12/15 13:33:35;;;;;;;22.33;18.38;;;10.90;99.90;;;;;;5073512;28;20411;-88
2021/12/15 13:36:22;;;;;;;20.25;16.48;;;10.80;99.90;;;;;;5073222;28;20372;-89
2021/12/15 13:38:59;;;;;;;22.33;18.27;;;10.80;99.90;;;;;;5073059;28;20891;-88
2021/12/15 13:41:44;;;;;;;21.45;17.23;;;10.80;99.90;;;;;;5073370;28;20457;-89
2021/12/15 13:44:26;;;;;;;24.27;19.63;;;10.90;99.90;;;;;;5072991;28;20429;-87
2021/12/15 13:47:02;;;;;;;22.63;19.67;;;10.70;99.90;;;;;;5073115;28;20801;-89
2021/12/15 13:49:38;;;;;;;23.20;19.05;;;10.70;99.90;;;;;;5073402;28;20393;-87
2021/12/15 13:52:04;;;;;;;21.95;18.50;;;10.80;99.90;;;;;;5091025;28;20531;-89
2021/12/15 13:54:33;;;;;;;21.48;18.42;;;10.70;99.90;;;;;;5073048;28;20419;-88
2021/12/15 13:57:03;;;;;;;23.55;19.95;;;10.70;99.90;;;;;;5064866;28;20392;-87
2021/12/15 13:59:36;;;;;;;24.50;19.67;;;10.70;99.90;;;;;;5067657;28;20389;-88
2021/12/15 14:02:25;;;;;;;21.65;19.27;;;10.80;99.90;;;;;;5072279;28;20836;-88
2021/12/15 14:04:57;;;;;;;23.23;20.60;;;10.80;99.90;;;;;;5072350;28;20392;-89
2021/12/15 14:07:28;;;;;;;23.73;20.97;;;10.70;99.90;;;;;;5072993;28;20906;-88
2021/12/15 14:10:10;;;;;;;25.55;20.63;;;10.70;99.90;;;;;;5071893;28;20384;-89
2021/12/15 14:12:45;;;;;;;24.13;21.38;;;10.60;99.90;;;;;;5072401;28;20513;-88
2021/12/15 14:15:36;;;;;;;23.20;20.05;;;10.70;99.90;;;;;;5090516;28;20791;-90
2021/12/15 14:18:05;;;;;;;24.70;20.45;;;10.80;99.90;;;;;;5063070;28;20875;-89
2021/12/15 14:20:33;;;;;;;25.35;20.90;;;10.70;99.90;;;;;;5071095;28;20766;-88
2021/12/15 14:23:06;;;;;;;24.85;21.10;;;10.50;99.90;;;;;;5071763;28;20385;-89